Lancaster, Virginia
Current Conditions -  °F | °C
As of 1:55 PM on Monday 20 Oct 2014 (Local Time) from KW75 Reporting Station
Clear Clear  
Wind Chill: 64°   Ceiling: Unl
Heat Index: 64°   Visibility: 10mi
Dew Point: 40°   Wind: 12mph
Humidity: 42%   Direction: 200°SSW
Pressure: 30.06"   Gusts: 23mph
Location:  37.77°N, 76.47°W
Report Text: KW75 201755Z AUTO 20010G20KT 10SM CLR 18/05 A3006 RMK AO1 T01760045 10180 20037
Loading
Personal Weather Stations






























Interactive Weather Map
Tropical Storm Tracking
New forecast layout! Learn more

10-Day Weather Forecast

Advertisements
Track Severe Weather on mobile